sensor_id;sensor_type;location;lat;lon;timestamp;pressure;altitude;pressure_sealevel;temperature;humidity
65546;BME280;52177;55.968;37.498;2023-04-25T00:00:28;99469.09;;;11.58;52.25
65546;BME280;52177;55.968;37.498;2023-04-25T00:00:59;99470.94;;;11.57;52.18
65546;BME280;52177;55.968;37.498;2023-04-25T00:01:29;99471.09;;;11.56;52.15
65546;BME280;52177;55.968;37.498;2023-04-25T00:02:00;99466.97;;;11.53;52.15
65546;BME280;52177;55.968;37.498;2023-04-25T00:02:30;99476.84;;;11.53;51.86
65546;BME280;52177;55.968;37.498;2023-04-25T00:03:01;99472.69;;;11.50;52.39
65546;BME280;52177;55.968;37.498;2023-04-25T00:03:32;99474.56;;;11.50;52.82
65546;BME280;52177;55.968;37.498;2023-04-25T00:04:02;99470.41;;;11.47;52.44
65546;BME280;52177;55.968;37.498;2023-04-25T00:04:33;99475.13;;;11.45;52.15
65546;BME280;52177;55.968;37.498;2023-04-25T00:05:04;99468.94;;;11.45;52.12
65546;BME280;52177;55.968;37.498;2023-04-25T00:05:34;99470.97;;;11.43;52.21
65546;BME280;52177;55.968;37.498;2023-04-25T00:06:07;99468.66;;;11.39;51.83
65546;BME280;52177;55.968;37.498;2023-04-25T00:06:38;99462.69;;;11.37;52.33
65546;BME280;52177;55.968;37.498;2023-04-25T00:07:09;99471.72;;;11.36;52.77
65546;BME280;52177;55.968;37.498;2023-04-25T00:07:40;99469.06;;;11.36;52.95
65546;BME280;52177;55.968;37.498;2023-04-25T00:08:12;99469.06;;;11.36;53.16
65546;BME280;52177;55.968;37.498;2023-04-25T00:08:43;99467.59;;;11.34;52.43
65546;BME280;52177;55.968;37.498;2023-04-25T00:09:13;99469.59;;;11.32;52.56
65546;BME280;52177;55.968;37.498;2023-04-25T00:09:44;99472.44;;;11.30;52.65
65546;BME280;52177;55.968;37.498;2023-04-25T00:10:15;99471.81;;;11.28;52.96
65546;BME280;52177;55.968;37.498;2023-04-25T00:10:45;99468.53;;;11.26;52.91
65546;BME280;52177;55.968;37.498;2023-04-25T00:11:16;99474.03;;;11.25;52.69
65546;BME280;52177;55.968;37.498;2023-04-25T00:11:46;99479.56;;;11.23;52.40
65546;BME280;52177;55.968;37.498;2023-04-25T00:12:16;99466.59;;;11.20;52.02
65546;BME280;52177;55.968;37.498;2023-04-25T00:12:47;99476.63;;;11.18;52.55
65546;BME280;52177;55.968;37.498;2023-04-25T00:13:17;99473.94;;;11.18;52.74
65546;BME280;52177;55.968;37.498;2023-04-25T00:13:49;99474.13;;;11.16;52.87
65546;BME280;52177;55.968;37.498;2023-04-25T00:14:24;99473.31;;;11.16;52.86
65546;BME280;52177;55.968;37.498;2023-04-25T00:14:55;99481.69;;;11.13;53.07
65546;BME280;52177;55.968;37.498;2023-04-25T00:15:27;99474.06;;;11.10;53.15
65546;BME280;52177;55.968;37.498;2023-04-25T00:15:57;99480.56;;;11.07;53.12
65546;BME280;52177;55.968;37.498;2023-04-25T00:16:28;99478.94;;;11.06;53.21
65546;BME280;52177;55.968;37.498;2023-04-25T00:17:01;99472.94;;;11.04;53.26
65546;BME280;52177;55.968;37.498;2023-04-25T00:17:31;99480.31;;;11.02;53.26
65546;BME280;52177;55.968;37.498;2023-04-25T00:18:01;99471.88;;;10.98;52.87
65546;BME280;52177;55.968;37.498;2023-04-25T00:18:32;99476.72;;;10.95;52.91
65546;BME280;52177;55.968;37.498;2023-04-25T00:19:03;99473.41;;;10.93;53.06
65546;BME280;52177;55.968;37.498;2023-04-25T00:19:33;99473.63;;;10.91;53.47
65546;BME280;52177;55.968;37.498;2023-04-25T00:20:05;99475.63;;;10.89;53.55
65546;BME280;52177;55.968;37.498;2023-04-25T00:20:37;99474.97;;;10.87;53.38
65546;BME280;52177;55.968;37.498;2023-04-25T00:21:07;99475.16;;;10.86;53.28
65546;BME280;52177;55.968;37.498;2023-04-25T00:21:37;99482.34;;;10.85;53.30
65546;BME280;52177;55.968;37.498;2023-04-25T00:22:10;99473.53;;;10.85;53.48
65546;BME280;52177;55.968;37.498;2023-04-25T00:22:41;99471.03;;;10.83;53.50
65546;BME280;52177;55.968;37.498;2023-04-25T00:23:13;99474.88;;;10.81;53.63
65546;BME280;52177;55.968;37.498;2023-04-25T00:23:47;99473.41;;;10.78;53.55
65546;BME280;52177;55.968;37.498;2023-04-25T00:24:18;99473.59;;;10.76;53.66
65546;BME280;52177;55.968;37.498;2023-04-25T00:24:48;99476.25;;;10.76;53.87
65546;BME280;52177;55.968;37.498;2023-04-25T00:25:18;99477.09;;;10.77;53.85
65546;BME280;52177;55.968;37.498;2023-04-25T00:25:49;99475.25;;;10.77;53.83
65546;BME280;52177;55.968;37.498;2023-04-25T00:26:20;99474.63;;;10.75;53.69
65546;BME280;52177;55.968;37.498;2023-04-25T00:26:53;99476.47;;;10.75;53.56
65546;BME280;52177;55.968;37.498;2023-04-25T00:27:24;99477.66;;;10.72;53.45
65546;BME280;52177;55.968;37.498;2023-04-25T00:27:54;99478.47;;;10.73;53.69
65546;BME280;52177;55.968;37.498;2023-04-25T00:28:25;99480.31;;;10.72;53.86
65546;BME280;52177;55.968;37.498;2023-04-25T00:28:55;99484.81;;;10.72;53.75
65546;BME280;52177;55.968;37.498;2023-04-25T00:29:25;99480.88;;;10.68;54.03
65546;BME280;52177;55.968;37.498;2023-04-25T00:29:56;99484.53;;;10.67;53.49
65546;BME280;52177;55.968;37.498;2023-04-25T00:30:26;99483.88;;;10.65;53.51
65546;BME280;52177;55.968;37.498;2023-04-25T00:30:57;99483.22;;;10.63;53.81
65546;BME280;52177;55.968;37.498;2023-04-25T00:31:27;99491.44;;;10.61;53.87
65546;BME280;52177;55.968;37.498;2023-04-25T00:31:59;99484.63;;;10.59;53.67
65546;BME280;52177;55.968;37.498;2023-04-25T00:32:29;99480.28;;;10.57;53.75
65546;BME280;52177;55.968;37.498;2023-04-25T00:32:59;99480.66;;;10.54;53.95
65546;BME280;52177;55.968;37.498;2023-04-25T00:33:30;99479.00;;;10.53;53.96
65546;BME280;52177;55.968;37.498;2023-04-25T00:34:00;99475.69;;;10.51;53.99
65546;BME280;52177;55.968;37.498;2023-04-25T00:34:30;99476.69;;;10.50;54.03
65546;BME280;52177;55.968;37.498;2023-04-25T00:35:01;99480.38;;;10.49;54.26
65546;BME280;52177;55.968;37.498;2023-04-25T00:35:32;99475.22;;;10.48;54.27
65546;BME280;52177;55.968;37.498;2023-04-25T00:36:02;99473.59;;;10.47;54.39
65546;BME280;52177;55.968;37.498;2023-04-25T00:36:33;99472.94;;;10.45;54.26
65546;BME280;52177;55.968;37.498;2023-04-25T00:37:03;99479.25;;;10.44;54.42
65546;BME280;52177;55.968;37.498;2023-04-25T00:37:34;99475.94;;;10.42;54.20
65546;BME280;52177;55.968;37.498;2023-04-25T00:38:04;99478.59;;;10.42;54.21
65546;BME280;52177;55.968;37.498;2023-04-25T00:38:34;99477.78;;;10.41;53.91
65546;BME280;52177;55.968;37.498;2023-04-25T00:39:05;99473.28;;;10.42;54.04
65546;BME280;52177;55.968;37.498;2023-04-25T00:39:36;99475.94;;;10.42;53.79
65546;BME280;52177;55.968;37.498;2023-04-25T00:40:07;99480.28;;;10.43;53.95
65546;BME280;52177;55.968;37.498;2023-04-25T00:40:37;99477.44;;;10.44;54.00
65546;BME280;52177;55.968;37.498;2023-04-25T00:41:08;99476.59;;;10.44;54.10
65546;BME280;52177;55.968;37.498;2023-04-25T00:41:38;99481.56;;;10.47;54.37
65546;BME280;52177;55.968;37.498;2023-04-25T00:42:09;99478.44;;;10.43;53.82
65546;BME280;52177;55.968;37.498;2023-04-25T00:42:40;99484.78;;;10.42;53.90
65546;BME280;52177;55.968;37.498;2023-04-25T00:43:11;99480.44;;;10.41;54.32
65546;BME280;52177;55.968;37.498;2023-04-25T00:43:42;99484.97;;;10.41;54.33
65546;BME280;52177;55.968;37.498;2023-04-25T00:44:14;99488.44;;;10.41;54.26
65546;BME280;52177;55.968;37.498;2023-04-25T00:44:47;99483.31;;;10.40;54.09
65546;BME280;52177;55.968;37.498;2023-04-25T00:45:18;99480.66;;;10.40;53.89
65546;BME280;52177;55.968;37.498;2023-04-25T00:45:50;99485.97;;;10.40;54.06
65546;BME280;52177;55.968;37.498;2023-04-25T00:46:21;99483.94;;;10.42;54.24
65546;BME280;52177;55.968;37.498;2023-04-25T00:46:52;99485.59;;;10.43;54.24
65546;BME280;52177;55.968;37.498;2023-04-25T00:47:22;99486.44;;;10.43;53.94
65546;BME280;52177;55.968;37.498;2023-04-25T00:47:54;99478.59;;;10.42;54.18
65546;BME280;52177;55.968;37.498;2023-04-25T00:48:24;99483.09;;;10.41;54.39
65546;BME280;52177;55.968;37.498;2023-04-25T00:48:55;99484.97;;;10.41;54.43
65546;BME280;52177;55.968;37.498;2023-04-25T00:49:25;99485.97;;;10.40;54.41
65546;BME280;52177;55.968;37.498;2023-04-25T00:49:55;99490.44;;;10.39;54.89
65546;BME280;52177;55.968;37.498;2023-04-25T00:50:26;99485.50;;;10.36;54.73
65546;BME280;52177;55.968;37.498;2023-04-25T00:50:59;99486.50;;;10.35;54.83
65546;BME280;52177;55.968;37.498;2023-04-25T00:51:30;99486.69;;;10.33;54.91
65546;BME280;52177;55.968;37.498;2023-04-25T00:52:02;99487.88;;;10.31;54.90
65546;BME280;52177;55.968;37.498;2023-04-25T00:52:32;99495.88;;;10.31;54.85
65546;BME280;52177;55.968;37.498;2023-04-25T00:53:03;99494.41;;;10.28;54.61
65546;BME280;52177;55.968;37.498;2023-04-25T00:53:33;99490.88;;;10.28;54.18
65546;BME280;52177;55.968;37.498;2023-04-25T00:54:04;99489.19;;;10.27;54.06
65546;BME280;52177;55.968;37.498;2023-04-25T00:54:34;99492.69;;;10.27;54.26
65546;BME280;52177;55.968;37.498;2023-04-25T00:55:05;99494.41;;;10.28;54.60
65546;BME280;52177;55.968;37.498;2023-04-25T00:55:35;99494.41;;;10.28;54.80
65546;BME280;52177;55.968;37.498;2023-04-25T00:56:06;99491.88;;;10.27;54.94
65546;BME280;52177;55.968;37.498;2023-04-25T00:56:37;99497.19;;;10.27;54.81
65546;BME280;52177;55.968;37.498;2023-04-25T00:57:07;99496.38;;;10.26;54.67
65546;BME280;52177;55.968;37.498;2023-04-25T00:57:38;99492.88;;;10.26;54.68
65546;BME280;52177;55.968;37.498;2023-04-25T00:58:09;99500.88;;;10.26;54.76
65546;BME280;52177;55.968;37.498;2023-04-25T00:58:40;99498.38;;;10.24;54.88
65546;BME280;52177;55.968;37.498;2023-04-25T00:59:11;99496.91;;;10.22;54.77
65546;BME280;52177;55.968;37.498;2023-04-25T00:59:45;99497.72;;;10.22;54.97
65546;BME280;52177;55.968;37.498;2023-04-25T01:00:17;99491.75;;;10.20;55.35
65546;BME280;52177;55.968;37.498;2023-04-25T01:00:49;99499.56;;;10.22;55.33
65546;BME280;52177;55.968;37.498;2023-04-25T01:01:20;99502.06;;;10.23;55.15
65546;BME280;52177;55.968;37.498;2023-04-25T01:01:50;99493.06;;;10.24;54.70
65546;BME280;52177;55.968;37.498;2023-04-25T01:02:21;99501.69;;;10.26;54.68
65546;BME280;52177;55.968;37.498;2023-04-25T01:02:52;99499.22;;;10.25;54.65
65546;BME280;52177;55.968;37.498;2023-04-25T01:03:22;99498.22;;;10.26;54.58
65546;BME280;52177;55.968;37.498;2023-04-25T01:03:54;99502.53;;;10.27;54.69
65546;BME280;52177;55.968;37.498;2023-04-25T01:04:27;99503.34;;;10.27;54.60
65546;BME280;52177;55.968;37.498;2023-04-25T01:04:57;99500.69;;;10.27;54.60
65546;BME280;52177;55.968;37.498;2023-04-25T01:05:27;99498.22;;;10.26;55.15
65546;BME280;52177;55.968;37.498;2023-04-25T01:05:58;99508.69;;;10.27;55.13
65546;BME280;52177;55.968;37.498;2023-04-25T01:06:29;99495.56;;;10.26;55.25
65546;BME280;52177;55.968;37.498;2023-04-25T01:07:00;99497.38;;;10.25;54.89
65546;BME280;52177;55.968;37.498;2023-04-25T01:07:30;99500.88;;;10.26;54.92
65546;BME280;52177;55.968;37.498;2023-04-25T01:08:01;99500.88;;;10.26;54.85
65546;BME280;52177;55.968;37.498;2023-04-25T01:08:31;99497.19;;;10.27;55.05
65546;BME280;52177;55.968;37.498;2023-04-25T01:09:02;99497.19;;;10.27;55.20
65546;BME280;52177;55.968;37.498;2023-04-25T01:09:34;99498.69;;;10.29;55.33
65546;BME280;52177;55.968;37.498;2023-04-25T01:10:06;99497.06;;;10.28;55.89
65546;BME280;52177;55.968;37.498;2023-04-25T01:10:36;99498.88;;;10.28;55.72
65546;BME280;52177;55.968;37.498;2023-04-25T01:11:07;99496.22;;;10.28;55.11
65546;BME280;52177;55.968;37.498;2023-04-25T01:11:37;99501.69;;;10.26;55.42
65546;BME280;52177;55.968;37.498;2023-04-25T01:12:10;99494.69;;;10.25;55.05
65546;BME280;52177;55.968;37.498;2023-04-25T01:12:40;99496.53;;;10.25;55.06
65546;BME280;52177;55.968;37.498;2023-04-25T01:13:11;99494.91;;;10.24;55.19
65546;BME280;52177;55.968;37.498;2023-04-25T01:13:41;99490.56;;;10.23;55.09
65546;BME280;52177;55.968;37.498;2023-04-25T01:14:12;99491.59;;;10.22;55.54
65546;BME280;52177;55.968;37.498;2023-04-25T01:14:42;99496.75;;;10.23;55.17
65546;BME280;52177;55.968;37.498;2023-04-25T01:15:13;99487.91;;;10.23;55.30
65546;BME280;52177;55.968;37.498;2023-04-25T01:15:43;99490.75;;;10.21;55.10
65546;BME280;52177;55.968;37.498;2023-04-25T01:16:14;99489.91;;;10.21;55.02
65546;BME280;52177;55.968;37.498;2023-04-25T01:16:45;99483.59;;;10.22;55.24
65546;BME280;52177;55.968;37.498;2023-04-25T01:17:15;99481.91;;;10.21;54.81
65546;BME280;52177;55.968;37.498;2023-04-25T01:17:46;99484.59;;;10.21;54.54
65546;BME280;52177;55.968;37.498;2023-04-25T01:18:16;99489.09;;;10.20;54.93
65546;BME280;52177;55.968;37.498;2023-04-25T01:18:48;99483.75;;;10.20;54.94
65546;BME280;52177;55.968;37.498;2023-04-25T01:19:19;99483.59;;;10.22;54.91
65546;BME280;52177;55.968;37.498;2023-04-25T01:19:50;99490.75;;;10.21;54.89
65546;BME280;52177;55.968;37.498;2023-04-25T01:20:21;99483.41;;;10.23;54.66
65546;BME280;52177;55.968;37.498;2023-04-25T01:20:53;99486.91;;;10.24;54.78
65546;BME280;52177;55.968;37.498;2023-04-25T01:21:24;99491.41;;;10.23;54.58
65546;BME280;52177;55.968;37.498;2023-04-25T01:21:57;99486.09;;;10.23;54.46
65546;BME280;52177;55.968;37.498;2023-04-25T01:22:27;99485.06;;;10.24;54.81
65546;BME280;52177;55.968;37.498;2023-04-25T01:22:58;99492.69;;;10.27;55.24
65546;BME280;52177;55.968;37.498;2023-04-25T01:23:29;99483.75;;;10.28;55.43
65546;BME280;52177;55.968;37.498;2023-04-25T01:24:00;99490.16;;;10.34;55.45
65546;BME280;52177;55.968;37.498;2023-04-25T01:24:32;99486.31;;;10.37;55.59
65546;BME280;52177;55.968;37.498;2023-04-25T01:25:02;99490.44;;;10.39;55.78
65546;BME280;52177;55.968;37.498;2023-04-25T01:25:33;99488.81;;;10.38;55.71
65546;BME280;52177;55.968;37.498;2023-04-25T01:26:03;99485.13;;;10.39;55.67
65546;BME280;52177;55.968;37.498;2023-04-25T01:26:35;99482.47;;;10.39;55.66
65546;BME280;52177;55.968;37.498;2023-04-25T01:27:06;99485.97;;;10.40;55.60
65546;BME280;52177;55.968;37.498;2023-04-25T01:27:36;99488.81;;;10.38;55.54
65546;BME280;52177;55.968;37.498;2023-04-25T01:28:07;99490.44;;;10.39;55.50
65546;BME280;52177;55.968;37.498;2023-04-25T01:28:38;99487.78;;;10.39;55.30
65546;BME280;52177;55.968;37.498;2023-04-25T01:29:12;99485.97;;;10.40;55.46
65546;BME280;52177;55.968;37.498;2023-04-25T01:29:42;99486.78;;;10.40;55.67
65546;BME280;52177;55.968;37.498;2023-04-25T01:30:13;99480.66;;;10.40;55.81
65546;BME280;52177;55.968;37.498;2023-04-25T01:30:44;99481.47;;;10.40;55.77
65546;BME280;52177;55.968;37.498;2023-04-25T01:31:15;99481.47;;;10.40;55.38
65546;BME280;52177;55.968;37.498;2023-04-25T01:31:46;99477.13;;;10.39;55.79
65546;BME280;52177;55.968;37.498;2023-04-25T01:32:17;99482.47;;;10.39;55.66
65546;BME280;52177;55.968;37.498;2023-04-25T01:32:49;99478.81;;;10.40;55.95
65546;BME280;52177;55.968;37.498;2023-04-25T01:33:20;99482.28;;;10.41;55.73
65546;BME280;52177;55.968;37.498;2023-04-25T01:33:52;99479.44;;;10.42;55.27
65546;BME280;52177;55.968;37.498;2023-04-25T01:34:23;99477.59;;;10.43;55.14
65546;BME280;52177;55.968;37.498;2023-04-25T01:34:53;99477.44;;;10.44;55.36
65546;BME280;52177;55.968;37.498;2023-04-25T01:35:24;99475.75;;;10.43;55.30
65546;BME280;52177;55.968;37.498;2023-04-25T01:35:55;99470.28;;;10.45;55.28
65546;BME280;52177;55.968;37.498;2023-04-25T01:36:25;99478.25;;;10.45;55.34
65546;BME280;52177;55.968;37.498;2023-04-25T01:36:59;99474.41;;;10.47;55.35
65546;BME280;52177;55.968;37.498;2023-04-25T01:37:29;99474.22;;;10.49;54.78
65546;BME280;52177;55.968;37.498;2023-04-25T01:38:00;99468.91;;;10.49;55.02
65546;BME280;52177;55.968;37.498;2023-04-25T01:38:31;99473.59;;;10.47;54.78
65546;BME280;52177;55.968;37.498;2023-04-25T01:39:02;99467.41;;;10.46;54.76
65546;BME280;52177;55.968;37.498;2023-04-25T01:39:32;99473.75;;;10.45;54.91
65546;BME280;52177;55.968;37.498;2023-04-25T01:40:03;99475.75;;;10.43;55.17
65546;BME280;52177;55.968;37.498;2023-04-25T01:40:38;99477.44;;;10.44;55.43
65546;BME280;52177;55.968;37.498;2023-04-25T01:41:09;99477.06;;;10.47;55.37
65546;BME280;52177;55.968;37.498;2023-04-25T01:41:40;99469.06;;;10.47;55.96
65546;BME280;52177;55.968;37.498;2023-04-25T01:42:12;99471.56;;;10.49;55.96
65546;BME280;52177;55.968;37.498;2023-04-25T01:42:44;99477.50;;;10.51;55.78
65546;BME280;52177;55.968;37.498;2023-04-25T01:43:15;99469.72;;;10.49;55.45
65546;BME280;52177;55.968;37.498;2023-04-25T01:43:45;99475.69;;;10.51;56.02
65546;BME280;52177;55.968;37.498;2023-04-25T01:44:16;99479.00;;;10.53;56.10
65546;BME280;52177;55.968;37.498;2023-04-25T01:44:46;99476.16;;;10.55;56.04
65546;BME280;52177;55.968;37.498;2023-04-25T01:45:17;99472.50;;;10.56;56.16
65546;BME280;52177;55.968;37.498;2023-04-25T01:45:49;99482.97;;;10.57;56.15
65546;BME280;52177;55.968;37.498;2023-04-25T01:46:19;99480.13;;;10.59;55.97
65546;BME280;52177;55.968;37.498;2023-04-25T01:46:50;99478.09;;;10.61;55.81
65546;BME280;52177;55.968;37.498;2023-04-25T01:47:20;99483.06;;;10.64;55.76
65546;BME280;52177;55.968;37.498;2023-04-25T01:47:50;99483.88;;;10.65;55.86
65546;BME280;52177;55.968;37.498;2023-04-25T01:48:21;99482.69;;;10.67;55.86
65546;BME280;52177;55.968;37.498;2023-04-25T01:48:51;99486.19;;;10.68;56.01
65546;BME280;52177;55.968;37.498;2023-04-25T01:49:21;99479.19;;;10.67;56.22
65546;BME280;52177;55.968;37.498;2023-04-25T01:49:52;99493.34;;;10.67;55.87
65546;BME280;52177;55.968;37.498;2023-04-25T01:50:22;99492.34;;;10.68;55.75
65546;BME280;52177;55.968;37.498;2023-04-25T01:50:52;99488.66;;;10.69;55.69
65546;BME280;52177;55.968;37.498;2023-04-25T01:51:23;99497.47;;;10.70;55.75
65546;BME280;52177;55.968;37.498;2023-04-25T01:51:53;99491.34;;;10.69;55.95
65546;BME280;52177;55.968;37.498;2023-04-25T01:52:24;99493.00;;;10.70;55.69
65546;BME280;52177;55.968;37.498;2023-04-25T01:52:55;99491.16;;;10.71;55.59
65546;BME280;52177;55.968;37.498;2023-04-25T01:53:25;99491.16;;;10.71;55.37
65546;BME280;52177;55.968;37.498;2023-04-25T01:53:56;99487.47;;;10.72;54.78
65546;BME280;52177;55.968;37.498;2023-04-25T01:54:27;99493.81;;;10.71;55.00
65546;BME280;52177;55.968;37.498;2023-04-25T01:55:01;99493.81;;;10.71;54.58
65546;BME280;52177;55.968;37.498;2023-04-25T01:55:32;99488.50;;;10.71;54.07
65546;BME280;52177;55.968;37.498;2023-04-25T01:56:02;99492.47;;;10.75;53.77
65546;BME280;52177;55.968;37.498;2023-04-25T01:56:36;99482.44;;;10.77;53.64
65546;BME280;52177;55.968;37.498;2023-04-25T01:57:07;99482.25;;;10.78;53.47
65546;BME280;52177;55.968;37.498;2023-04-25T01:57:38;99480.41;;;10.79;53.36
65546;BME280;52177;55.968;37.498;2023-04-25T01:58:08;99477.72;;;10.79;53.24
65546;BME280;52177;55.968;37.498;2023-04-25T01:58:43;99487.41;;;10.80;53.66
65546;BME280;52177;55.968;37.498;2023-04-25T01:59:13;99484.72;;;10.80;54.06
65546;BME280;52177;55.968;37.498;2023-04-25T01:59:43;99486.19;;;10.83;54.28
65546;BME280;52177;55.968;37.498;2023-04-25T02:00:14;99490.72;;;10.82;54.69
65546;BME280;52177;55.968;37.498;2023-04-25T02:00:44;99487.03;;;10.83;54.70
65546;BME280;52177;55.968;37.498;2023-04-25T02:01:15;99486.03;;;10.84;54.90
65546;BME280;52177;55.968;37.498;2023-04-25T02:01:45;99483.38;;;10.84;55.18
65546;BME280;52177;55.968;37.498;2023-04-25T02:02:16;99478.84;;;10.85;54.89
65546;BME280;52177;55.968;37.498;2023-04-25T02:02:46;99475.53;;;10.83;54.65
65546;BME280;52177;55.968;37.498;2023-04-25T02:03:16;99483.38;;;10.84;54.65
65546;BME280;52177;55.968;37.498;2023-04-25T02:03:47;99479.41;;;10.80;54.80
65546;BME280;52177;55.968;37.498;2023-04-25T02:04:17;99477.09;;;10.77;54.68
65546;BME280;52177;55.968;37.498;2023-04-25T02:04:47;99475.44;;;10.76;54.86
65546;BME280;52177;55.968;37.498;2023-04-25T02:05:18;99472.13;;;10.74;54.47
65546;BME280;52177;55.968;37.498;2023-04-25T02:05:48;99475.81;;;10.73;54.34
65546;BME280;52177;55.968;37.498;2023-04-25T02:06:18;99481.16;;;10.73;54.69
65546;BME280;52177;55.968;37.498;2023-04-25T02:06:49;99470.47;;;10.73;55.07
65546;BME280;52177;55.968;37.498;2023-04-25T02:07:19;99470.47;;;10.73;55.52
65546;BME280;52177;55.968;37.498;2023-04-25T02:07:50;99471.94;;;10.75;55.79
65546;BME280;52177;55.968;37.498;2023-04-25T02:08:20;99476.09;;;10.78;55.43
65546;BME280;52177;55.968;37.498;2023-04-25T02:08:50;99472.41;;;10.79;55.48
65546;BME280;52177;55.968;37.498;2023-04-25T02:09:21;99480.06;;;10.82;55.94
65546;BME280;52177;55.968;37.498;2023-04-25T02:09:51;99478.03;;;10.84;55.79
65546;BME280;52177;55.968;37.498;2023-04-25T02:10:22;99484.63;;;10.88;55.80
65546;BME280;52177;55.968;37.498;2023-04-25T02:10:52;99478.94;;;10.91;55.84
65546;BME280;52177;55.968;37.498;2023-04-25T02:11:23;99485.91;;;10.92;55.97
65546;BME280;52177;55.968;37.498;2023-04-25T02:11:53;99481.41;;;10.93;55.67
65546;BME280;52177;55.968;37.498;2023-04-25T02:12:23;99483.91;;;10.94;55.84
65546;BME280;52177;55.968;37.498;2023-04-25T02:12:57;99481.41;;;10.93;55.93
65546;BME280;52177;55.968;37.498;2023-04-25T02:13:27;99487.59;;;10.93;55.62
65546;BME280;52177;55.968;37.498;2023-04-25T02:13:57;99477.94;;;10.92;55.40
65546;BME280;52177;55.968;37.498;2023-04-25T02:14:28;99482.59;;;10.90;55.21
65546;BME280;52177;55.968;37.498;2023-04-25T02:14:58;99475.44;;;10.91;54.98
65546;BME280;52177;55.968;37.498;2023-04-25T02:15:29;99476.28;;;10.91;54.63
65546;BME280;52177;55.968;37.498;2023-04-25T02:15:59;99481.41;;;10.93;54.47
65546;BME280;52177;55.968;37.498;2023-04-25T02:16:29;99481.41;;;10.93;54.65
65546;BME280;52177;55.968;37.498;2023-04-25T02:17:00;99479.38;;;10.95;54.91
65546;BME280;52177;55.968;37.498;2023-04-25T02:17:31;99478.41;;;10.96;55.16
65546;BME280;52177;55.968;37.498;2023-04-25T02:18:01;99483.53;;;10.97;55.21
65546;BME280;52177;55.968;37.498;2023-04-25T02:18:32;99476.38;;;10.98;55.13
65546;BME280;52177;55.968;37.498;2023-04-25T02:19:03;99477.19;;;10.98;55.54
65546;BME280;52177;55.968;37.498;2023-04-25T02:19:33;99476.16;;;10.99;55.94
65546;BME280;52177;55.968;37.498;2023-04-25T02:20:04;99477.00;;;11.00;56.09
65546;BME280;52177;55.968;37.498;2023-04-25T02:20:35;99479.47;;;11.02;56.14
65546;BME280;52177;55.968;37.498;2023-04-25T02:21:06;99481.97;;;11.03;56.04
65546;BME280;52177;55.968;37.498;2023-04-25T02:21:36;99474.97;;;11.02;55.73
65546;BME280;52177;55.968;37.498;2023-04-25T02:22:07;99476.66;;;11.03;55.94
65546;BME280;52177;55.968;37.498;2023-04-25T02:22:37;99484.44;;;11.05;56.20
65546;BME280;52177;55.968;37.498;2023-04-25T02:23:08;99482.81;;;11.04;56.30
65546;BME280;52177;55.968;37.498;2023-04-25T02:23:38;99482.81;;;11.04;56.66
65546;BME280;52177;55.968;37.498;2023-04-25T02:24:08;99474.97;;;11.02;56.66
65546;BME280;52177;55.968;37.498;2023-04-25T02:24:39;99482.16;;;11.02;56.77
65546;BME280;52177;55.968;37.498;2023-04-25T02:25:10;99476.81;;;11.02;56.54
65546;BME280;52177;55.968;37.498;2023-04-25T02:25:41;99475.34;;;10.99;56.50
65546;BME280;52177;55.968;37.498;2023-04-25T02:26:12;99475.34;;;10.99;56.43
65546;BME280;52177;55.968;37.498;2023-04-25T02:26:43;99472.84;;;10.97;56.00
65546;BME280;52177;55.968;37.498;2023-04-25T02:27:14;99474.88;;;10.95;55.84
65546;BME280;52177;55.968;37.498;2023-04-25T02:27:44;99478.19;;;10.97;55.74
65546;BME280;52177;55.968;37.498;2023-04-25T02:28:15;99478.41;;;10.96;55.96
65546;BME280;52177;55.968;37.498;2023-04-25T02:28:46;99477.53;;;10.95;56.14
65546;BME280;52177;55.968;37.498;2023-04-25T02:29:16;99481.88;;;10.96;56.19
65546;BME280;52177;55.968;37.498;2023-04-25T02:29:46;99483.53;;;10.97;56.28
65546;BME280;52177;55.968;37.498;2023-04-25T02:30:17;99481.50;;;10.99;56.24
65546;BME280;52177;55.968;37.498;2023-04-25T02:30:47;99485.84;;;11.01;55.89
65546;BME280;52177;55.968;37.498;2023-04-25T02:31:17;99479.47;;;11.02;55.70
65546;BME280;52177;55.968;37.498;2023-04-25T02:31:48;99477.84;;;11.01;56.13
65546;BME280;52177;55.968;37.498;2023-04-25T02:32:18;99477.84;;;11.01;56.36
65546;BME280;52177;55.968;37.498;2023-04-25T02:32:48;99475.19;;;11.01;56.61
65546;BME280;52177;55.968;37.498;2023-04-25T02:33:19;99476.16;;;10.99;56.70
65546;BME280;52177;55.968;37.498;2023-04-25T02:33:51;99478.66;;;11.01;56.78
65546;BME280;52177;55.968;37.498;2023-04-25T02:34:21;99477.00;;;11.00;56.91
65546;BME280;52177;55.968;37.498;2023-04-25T02:34:52;99474.53;;;10.98;56.58
65546;BME280;52177;55.968;37.498;2023-04-25T02:35:22;99477.19;;;10.98;56.43
65546;BME280;52177;55.968;37.498;2023-04-25T02:35:52;99471.03;;;10.98;56.37
65546;BME280;52177;55.968;37.498;2023-04-25T02:36:23;99474.53;;;10.98;56.46
65546;BME280;52177;55.968;37.498;2023-04-25T02:36:54;99469.84;;;11.01;56.45
65546;BME280;52177;55.968;37.498;2023-04-25T02:37:25;99472.13;;;11.04;56.34
65546;BME280;52177;55.968;37.498;2023-04-25T02:37:55;99473.78;;;11.05;56.88
65546;BME280;52177;55.968;37.498;2023-04-25T02:38:25;99472.78;;;11.06;57.04
65546;BME280;52177;55.968;37.498;2023-04-25T02:38:56;99464.56;;;11.07;57.13
65546;BME280;52177;55.968;37.498;2023-04-25T02:39:26;99476.09;;;11.08;57.02
65546;BME280;52177;55.968;37.498;2023-04-25T02:39:57;99472.41;;;11.09;56.62
65546;BME280;52177;55.968;37.498;2023-04-25T02:40:27;99472.22;;;11.10;56.38
65546;BME280;52177;55.968;37.498;2023-04-25T02:40:58;99480.66;;;11.14;56.86
65546;BME280;52177;55.968;37.498;2023-04-25T02:41:28;99472.47;;;11.15;57.15